^^
Saratoga-Weather Station Historical Data
Daily Summary for January 20, 2021 Units:  Both    English   Metric
Daily Weekly Monthly Yearly Custom
  High: Low: Average:
Temperature: 51.6 °F /  10.9 °C 30.6 °F /  -0.8 °C 42.3 °F /  5.7 °C
Dew Point: 43.3 °F /  6.3 °C 29.5 °F /  -1.4 °C 37.6 °F /  3.1 °C
Humidity: 97% 68% 84%
Wind Speed: 8.1mph /  13km/h - 1.7mph /  2.7km/h
Wind Gust: 15mph /  24.1km/h - -
Wind- - SE
Pressure: 29.8 in /  1010.5 hPa 29.4 in /  997.0 hPa -
Precipitation: 0.01 in /  0.2 mm    
Historical Graphs
 
 
Tabular Data for January 20, 2021
Time Temperature Dew Point Pressure Wind Wind Speed Wind Gust Humidity Rainfall Rate (Hourly) solar
00:01 31.3 °F /  -0.4 °C 30.2 °F /  -1 °C 29.8in /  1010.5hPa Calm     96% 0in /  0.0mm 0 W/m2
00:06 31.3 °F /  -0.4 °C 30.2 °F /  -1 °C 29.8in /  1010.5hPa East 0.9mph /  1.4km/h 2mph /  3.2km/h 96% 0in /  0.0mm 0 W/m2
00:11 31.3 °F /  -0.4 °C 30.2 °F /  -1 °C 29.8in /  1010.2hPa East 2mph /  3.2km/h 2mph /  3.2km/h 96% 0in /  0.0mm 0 W/m2
00:16 31.3 °F /  -0.4 °C 30.2 °F /  -1 °C 29.8in /  1010.2hPa Calm   2mph /  3.2km/h 96% 0in /  0.0mm 0 W/m2
00:21 31.3 °F /  -0.4 °C 30.2 °F /  -1 °C 29.8in /  1010.2hPa Calm   1mph /  1.6km/h 96% 0in /  0.0mm 0 W/m2
00:26 31.3 °F /  -0.4 °C 30.2 °F /  -1 °C 29.8in /  1010.2hPa Calm   1mph /  1.6km/h 96% 0in /  0.0mm 0 W/m2
00:31 31.3 °F /  -0.4 °C 30.2 °F /  -1 °C 29.8in /  1010.2hPa Calm   2mph /  3.2km/h 96% 0in /  0.0mm 0 W/m2
00:36 31.3 °F /  -0.4 °C 30.2 °F /  -1 °C 29.8in /  1010.2hPa SE 2.9mph /  4.7km/h 3mph /  4.8km/h 96% 0in /  0.0mm 0 W/m2
00:41 31.3 °F /  -0.4 °C 30.6 °F /  -0.8 °C 29.8in /  1010.2hPa SE 0.9mph /  1.4km/h 2mph /  3.2km/h 97% 0in /  0.0mm 0 W/m2
00:46 31.3 °F /  -0.4 °C 30.6 °F /  -0.8 °C 29.8in /  1010.2hPa ESE 2mph /  3.2km/h 3mph /  4.8km/h 97% 0in /  0.0mm 0 W/m2
00:51 31.3 °F /  -0.4 °C 30.2 °F /  -1 °C 29.8in /  1010.2hPa Calm     96% 0in /  0.0mm 0 W/m2
00:56 31.3 °F /  -0.4 °C 30.2 °F /  -1 °C 29.8in /  1009.8hPa Calm     96% 0in /  0.0mm 0 W/m2
01:01 31.1 °F /  -0.5 °C 30 °F /  -1.1 °C 29.8in /  1009.8hPa Calm     96% 0in /  0.0mm 0 W/m2
01:06 30.9 °F /  -0.6 °C 29.8 °F /  -1.2 °C 29.8in /  1009.8hPa Calm     96% 0in /  0.0mm 0 W/m2
01:11 30.9 °F /  -0.6 °C 29.8 °F /  -1.2 °C 29.8in /  1009.8hPa Calm   2mph /  3.2km/h 96% 0in /  0.0mm 0 W/m2
01:16 30.9 °F /  -0.6 °C 29.8 °F /  -1.2 °C 29.8in /  1009.8hPa Calm   1mph /  1.6km/h 96% 0in /  0.0mm 0 W/m2
01:21 30.7 °F /  -0.7 °C 29.7 °F /  -1.3 °C 29.8in /  1009.8hPa Calm   2mph /  3.2km/h 96% 0in /  0.0mm 0 W/m2
01:26 30.7 °F /  -0.7 °C 29.7 °F /  -1.3 °C 29.8in /  1009.5hPa Calm   1mph /  1.6km/h 96% 0in /  0.0mm 0 W/m2
01:31 30.6 °F /  -0.8 °C 29.5 °F /  -1.4 °C 29.8in /  1009.5hPa Calm   2mph /  3.2km/h 96% 0in /  0.0mm 0 W/m2
01:36 30.7 °F /  -0.7 °C 30 °F /  -1.1 °C 29.8in /  1009.5hPa Calm   2mph /  3.2km/h 97% 0in /  0.0mm 0 W/m2
01:41 30.7 °F /  -0.7 °C 29.7 °F /  -1.3 °C 29.8in /  1009.1hPa ESE 0.9mph /  1.4km/h 2mph /  3.2km/h 96% 0in /  0.0mm 0 W/m2
01:46 30.9 °F /  -0.6 °C 30.2 °F /  -1 °C 29.8in /  1009.1hPa Calm   2mph /  3.2km/h 97% 0in /  0.0mm 0 W/m2
01:51 30.9 °F /  -0.6 °C 30.2 °F /  -1 °C 29.8in /  1009.1hPa Calm   2mph /  3.2km/h 97% 0in /  0.0mm 0 W/m2
01:56 30.9 °F /  -0.6 °C 30.2 °F /  -1 °C 29.8in /  1009.1hPa Calm   1mph /  1.6km/h 97% 0in /  0.0mm 0 W/m2
02:01 31.1 °F /  -0.5 °C 30.4 °F /  -0.9 °C 29.8in /  1009.1hPa Calm   1mph /  1.6km/h 97% 0in /  0.0mm 0 W/m2
02:07 31.1 °F /  -0.5 °C 30.4 °F /  -0.9 °C 29.8in /  1009.1hPa ESE 0.9mph /  1.4km/h 1mph /  1.6km/h 97% 0in /  0.0mm 0 W/m2
02:12 31.3 °F /  -0.4 °C 30.6 °F /  -0.8 °C 29.8in /  1009.1hPa ESE 2mph /  3.2km/h 3mph /  4.8km/h 97% 0in /  0.0mm 0 W/m2
02:17 31.3 °F /  -0.4 °C 30.6 °F /  -0.8 °C 29.8in /  1009.1hPa Calm   2mph /  3.2km/h 97% 0in /  0.0mm 0 W/m2
02:22 31.3 °F /  -0.4 °C 30.6 °F /  -0.8 °C 29.8in /  1009.1hPa Calm   3mph /  4.8km/h 97% 0in /  0.0mm 0 W/m2
02:32 31.1 °F /  -0.5 °C 30.4 °F /  -0.9 °C 29.8in /  1009.1hPa Calm   1mph /  1.6km/h 97% 0in /  0.0mm 0 W/m2
02:37 31.1 °F /  -0.5 °C 30.4 °F /  -0.9 °C 29.8in /  1009.1hPa Calm   1mph /  1.6km/h 97% 0in /  0.0mm 0 W/m2
02:42 31.1 °F /  -0.5 °C 30.4 °F /  -0.9 °C 29.8in /  1009.1hPa Calm     97% 0in /  0.0mm 0 W/m2
02:47 31.1 °F /  -0.5 °C 30.4 °F /  -0.9 °C 29.8in /  1009.1hPa Calm     97% 0in /  0.0mm 0 W/m2
02:52 31.1 °F /  -0.5 °C 30.4 °F /  -0.9 °C 29.8in /  1008.8hPa Calm   1mph /  1.6km/h 97% 0in /  0.0mm 0 W/m2
02:57 30.9 °F /  -0.6 °C 30.2 °F /  -1 °C 29.8in /  1008.8hPa Calm   2mph /  3.2km/h 97% 0in /  0.0mm 0 W/m2
03:07 30.9 °F /  -0.6 °C 30.2 °F /  -1 °C 29.8in /  1008.8hPa ESE 0.9mph /  1.4km/h 2mph /  3.2km/h 97% 0in /  0.0mm 0 W/m2
03:12 31.1 °F /  -0.5 °C 30.4 °F /  -0.9 °C 29.8in /  1008.8hPa Calm   2mph /  3.2km/h 97% 0in /  0.0mm 0 W/m2
03:17 31.3 °F /  -0.4 °C 30.6 °F /  -0.8 °C 29.8in /  1008.8hPa Calm     97% 0in /  0.0mm 0 W/m2
03:22 31.3 °F /  -0.4 °C 30.6 °F /  -0.8 °C 29.8in /  1008.8hPa Calm     97% 0in /  0.0mm 0 W/m2
03:27 31.5 °F /  -0.3 °C 30.7 °F /  -0.7 °C 29.8in /  1008.5hPa Calm     97% 0in /  0.0mm 0 W/m2
03:42 31.3 °F /  -0.4 °C 30.6 °F /  -0.8 °C 29.8in /  1008.5hPa Calm   2mph /  3.2km/h 97% 0in /  0.0mm 0 W/m2
03:47 31.5 °F /  -0.3 °C 30.7 °F /  -0.7 °C 29.8in /  1008.5hPa Calm   2mph /  3.2km/h 97% 0in /  0.0mm 0 W/m2
03:52 31.5 °F /  -0.3 °C 30.7 °F /  -0.7 °C 29.8in /  1008.5hPa ESE 0.9mph /  1.4km/h 2mph /  3.2km/h 97% 0in /  0.0mm 0 W/m2
03:57 31.5 °F /  -0.3 °C 30.7 °F /  -0.7 °C 29.8in /  1008.5hPa ESE 0.9mph /  1.4km/h 2mph /  3.2km/h 97% 0in /  0.0mm 0 W/m2
04:02 31.5 °F /  -0.3 °C 30.7 °F /  -0.7 °C 29.8in /  1008.5hPa ESE 0.9mph /  1.4km/h 2mph /  3.2km/h 97% 0in /  0.0mm 0 W/m2
04:07 31.5 °F /  -0.3 °C 30.7 °F /  -0.7 °C 29.8in /  1008.5hPa ESE 0.9mph /  1.4km/h 2mph /  3.2km/h 97% 0in /  0.0mm 0 W/m2
04:12 31.6 °F /  -0.2 °C 30.9 °F /  -0.6 °C 29.8in /  1008.1hPa Calm   2mph /  3.2km/h 97% 0in /  0.0mm 0 W/m2
04:17 31.6 °F /  -0.2 °C 30.9 °F /  -0.6 °C 29.8in /  1008.1hPa Calm     97% 0in /  0.0mm 0 W/m2
04:22 31.6 °F /  -0.2 °C 30.9 °F /  -0.6 °C 29.8in /  1008.1hPa Calm   1mph /  1.6km/h 97% 0in /  0.0mm 0 W/m2
04:27 31.8 °F /  -0.1 °C 31.1 °F /  -0.5 °C 29.8in /  1008.1hPa Calm     97% 0in /  0.0mm 0 W/m2
04:32 31.8 °F /  -0.1 °C 31.1 °F /  -0.5 °C 29.8in /  1008.1hPa Calm   1mph /  1.6km/h 97% 0in /  0.0mm 0 W/m2
04:37 31.8 °F /  -0.1 °C 31.1 °F /  -0.5 °C 29.8in /  1008.1hPa Calm   1mph /  1.6km/h 97% 0in /  0.0mm 0 W/m2
04:42 32 °F /  0 °C 31.3 °F /  -0.4 °C 29.8in /  1008.1hPa Calm   2mph /  3.2km/h 97% 0in /  0.0mm 0 W/m2
04:47 32.2 °F /  0.1 °C 31.5 °F /  -0.3 °C 29.8in /  1008.1hPa Calm     97% 0in /  0.0mm 0 W/m2
04:52 32.2 °F /  0.1 °C 31.5 °F /  -0.3 °C 29.8in /  1007.8hPa Calm   1mph /  1.6km/h 97% 0in /  0.0mm 0 W/m2
04:57 32.2 °F /  0.1 °C 31.5 °F /  -0.3 °C 29.8in /  1007.8hPa Calm     97% 0in /  0.0mm 0 W/m2
05:02 32.2 °F /  0.1 °C 31.5 °F /  -0.3 °C 29.8in /  1007.5hPa SE 2mph /  3.2km/h 2mph /  3.2km/h 97% 0in /  0.0mm 0 W/m2
05:07 32.2 °F /  0.1 °C 31.5 °F /  -0.3 °C 29.8in /  1007.5hPa Calm   1mph /  1.6km/h 97% 0in /  0.0mm 0 W/m2
05:12 32.4 °F /  0.2 °C 31.6 °F /  -0.2 °C 29.8in /  1007.5hPa East 2.9mph /  4.7km/h 5mph /  8km/h 97% 0in /  0.0mm 0 W/m2
05:17 32.5 °F /  0.3 °C 31.8 °F /  -0.1 °C 29.8in /  1007.5hPa ESE 2mph /  3.2km/h 3mph /  4.8km/h 97% 0in /  0.0mm 0 W/m2
05:22 32.5 °F /  0.3 °C 31.8 °F /  -0.1 °C 29.8in /  1007.5hPa ESE 0.9mph /  1.4km/h 5mph /  8km/h 97% 0in /  0.0mm 0 W/m2
05:27 32.7 °F /  0.4 °C 32 °F /  0 °C 29.8in /  1007.5hPa Calm   1mph /  1.6km/h 97% 0in /  0.0mm 0 W/m2
05:32 33.1 °F /  0.6 °C 32.4 °F /  0.2 °C 29.8in /  1007.5hPa NE 2mph /  3.2km/h 5mph /  8km/h 97% 0in /  0.0mm 0 W/m2
05:37 34.2 °F /  1.2 °C 33.4 °F /  0.8 °C 29.7in /  1007.1hPa ESE 2.9mph /  4.7km/h 3mph /  4.8km/h 97% 0in /  0.0mm 0 W/m2
05:42 34.7 °F /  1.5 °C 34 °F /  1.1 °C 29.7in /  1007.1hPa ENE 0.9mph /  1.4km/h 5mph /  8km/h 97% 0in /  0.0mm 0 W/m2
05:47 34.9 °F /  1.6 °C 34.2 °F /  1.2 °C 29.7in /  1007.1hPa ENE 2mph /  3.2km/h 2mph /  3.2km/h 97% 0in /  0.0mm 0 W/m2
05:52 34.9 °F /  1.6 °C 34.2 °F /  1.2 °C 29.7in /  1007.1hPa Calm   2mph /  3.2km/h 97% 0in /  0.0mm 0 W/m2
05:57 34.9 °F /  1.6 °C 33.8 °F /  1 °C 29.7in /  1007.1hPa SSE 0.9mph /  1.4km/h 2mph /  3.2km/h 96% 0in /  0.0mm 0 W/m2
06:02 35.1 °F /  1.7 °C 34 °F /  1.1 °C 29.7in /  1007.1hPa Calm   3mph /  4.8km/h 96% 0in /  0.0mm 0 W/m2
06:07 35.4 °F /  1.9 °C 34.2 °F /  1.2 °C 29.7in /  1006.8hPa East 2.9mph /  4.7km/h 4mph /  6.4km/h 95% 0in /  0.0mm 0 W/m2
06:12 36 °F /  2.2 °C 34.3 °F /  1.3 °C 29.7in /  1007.1hPa South 0.9mph /  1.4km/h 4mph /  6.4km/h 94% 0in /  0.0mm 0 W/m2
06:17 35.8 °F /  2.1 °C 34 °F /  1.1 °C 29.7in /  1007.1hPa Calm   3mph /  4.8km/h 93% 0in /  0.0mm 0 W/m2
06:22 35.8 °F /  2.1 °C 33.6 °F /  0.9 °C 29.7in /  1006.8hPa ENE 2.9mph /  4.7km/h 3mph /  4.8km/h 92% 0in /  0.0mm 0 W/m2
06:27 36 °F /  2.2 °C 33.8 °F /  1 °C 29.7in /  1006.8hPa Calm   2mph /  3.2km/h 92% 0in /  0.0mm 0 W/m2
06:32 36.3 °F /  2.4 °C 34 °F /  1.1 °C 29.7in /  1006.8hPa Calm   4mph /  6.4km/h 91% 0in /  0.0mm 0 W/m2
06:37 36.9 °F /  2.7 °C 34 °F /  1.1 °C 29.7in /  1006.8hPa East 2.9mph /  4.7km/h 3mph /  4.8km/h 89% 0in /  0.0mm 0 W/m2
06:42 37 °F /  2.8 °C 34.2 °F /  1.2 °C 29.7in /  1006.8hPa ESE 2mph /  3.2km/h 4mph /  6.4km/h 89% 0in /  0.0mm 0 W/m2
06:47 36.9 °F /  2.7 °C 33.6 °F /  0.9 °C 29.7in /  1006.8hPa ESE 2mph /  3.2km/h 4mph /  6.4km/h 88% 0in /  0.0mm 0 W/m2
06:52 36.7 °F /  2.6 °C 33.4 °F /  0.8 °C 29.7in /  1006.8hPa SE 0.9mph /  1.4km/h 2mph /  3.2km/h 88% 0in /  0.0mm 0 W/m2
06:57 36.1 °F /  2.3 °C 33.3 °F /  0.7 °C 29.7in /  1006.8hPa ESE 2mph /  3.2km/h 3mph /  4.8km/h 89% 0in /  0.0mm 0 W/m2
07:02 35.8 °F /  2.1 °C 32.9 °F /  0.5 °C 29.7in /  1006.4hPa ESE 2mph /  3.2km/h 3mph /  4.8km/h 89% 0in /  0.0mm 0 W/m2
07:07 35.6 °F /  2 °C 32.9 °F /  0.5 °C 29.7in /  1006.4hPa ESE 2mph /  3.2km/h 3mph /  4.8km/h 90% 0in /  0.0mm 0 W/m2
07:12 35.4 °F /  1.9 °C 32.7 °F /  0.4 °C 29.7in /  1006.4hPa ESE 0.9mph /  1.4km/h 3mph /  4.8km/h 90% 0in /  0.0mm 0 W/m2
07:17 35.2 °F /  1.8 °C 32.5 °F /  0.3 °C 29.7in /  1006.4hPa SE 0.9mph /  1.4km/h 2mph /  3.2km/h 90% 0in /  0.0mm 0 W/m2
07:22 35.2 °F /  1.8 °C 32.9 °F /  0.5 °C 29.7in /  1006.4hPa SE 2mph /  3.2km/h 2mph /  3.2km/h 91% 0in /  0.0mm 0 W/m2
07:27 35.1 °F /  1.7 °C 32.7 °F /  0.4 °C 29.7in /  1006.4hPa SSE 0.9mph /  1.4km/h 2mph /  3.2km/h 91% 0in /  0.0mm 0 W/m2
07:32 35.1 °F /  1.7 °C 32.7 °F /  0.4 °C 29.7in /  1006.4hPa SSE 2mph /  3.2km/h 3mph /  4.8km/h 91% 0in /  0.0mm 0 W/m2
07:37 34.9 °F /  1.6 °C 32.7 °F /  0.4 °C 29.7in /  1006.1hPa Calm   2mph /  3.2km/h 92% 0in /  0.0mm 0 W/m2
07:42 34.9 °F /  1.6 °C 32.7 °F /  0.4 °C 29.7in /  1006.1hPa SE 0.9mph /  1.4km/h 2mph /  3.2km/h 92% 0.01in /  0.2mm 0 W/m2
07:47 34.7 °F /  1.5 °C 32.5 °F /  0.3 °C 29.7in /  1006.1hPa Calm   3mph /  4.8km/h 92% 0.01in /  0.2mm 0 W/m2
07:52 34.5 °F /  1.4 °C 32.4 °F /  0.2 °C 29.7in /  1006.4hPa Calm     92% 0.01in /  0.2mm 0 W/m2
07:57 34.5 °F /  1.4 °C 32.4 °F /  0.2 °C 29.7in /  1006.1hPa Calm     92% 0.01in /  0.2mm 0 W/m2
08:02 34.3 °F /  1.3 °C 32.2 °F /  0.1 °C 29.7in /  1006.1hPa Calm     92% 0.01in /  0.2mm 0 W/m2
08:07 34.2 °F /  1.2 °C 32 °F /  0 °C 29.7in /  1006.1hPa Calm   1mph /  1.6km/h 92% 0.01in /  0.2mm 0 W/m2
08:12 34.2 °F /  1.2 °C 32.4 °F /  0.2 °C 29.7in /  1006.1hPa Calm   1mph /  1.6km/h 93% 0.01in /  0.2mm 0 W/m2
08:17 34.2 °F /  1.2 °C 32.4 °F /  0.2 °C 29.7in /  1006.1hPa SE 0.9mph /  1.4km/h 3mph /  4.8km/h 93% 0.01in /  0.2mm 0 W/m2
08:22 34.2 °F /  1.2 °C 32.4 °F /  0.2 °C 29.7in /  1006.1hPa SE 2mph /  3.2km/h 3mph /  4.8km/h 93% 0.01in /  0.2mm 0 W/m2
08:27 34.2 °F /  1.2 °C 32.4 °F /  0.2 °C 29.7in /  1006.1hPa SE 0.9mph /  1.4km/h 2mph /  3.2km/h 93% 0.01in /  0.2mm 0 W/m2
08:32 34.2 °F /  1.2 °C 32.4 °F /  0.2 °C 29.7in /  1006.1hPa SE 0.9mph /  1.4km/h 1mph /  1.6km/h 93% 0.01in /  0.2mm 5 W/m2
08:37 34.2 °F /  1.2 °C 32.5 °F /  0.3 °C 29.7in /  1005.8hPa Calm     94% 0.01in /  0.2mm 7 W/m2
08:42 34.2 °F /  1.2 °C 32.5 °F /  0.3 °C 29.7in /  1005.8hPa Calm   1mph /  1.6km/h 94% 0in /  0.0mm 9 W/m2
08:47 34.2 °F /  1.2 °C 32.5 °F /  0.3 °C 29.7in /  1005.8hPa Calm     94% 0in /  0.0mm 12 W/m2
08:52 34.2 °F /  1.2 °C 32.5 °F /  0.3 °C 29.7in /  1005.8hPa Calm   1mph /  1.6km/h 94% 0in /  0.0mm 14 W/m2
08:57 34.3 °F /  1.3 °C 32.7 °F /  0.4 °C 29.7in /  1005.8hPa Calm   2mph /  3.2km/h 94% 0in /  0.0mm 16 W/m2
09:02 34.3 °F /  1.3 °C 32.7 °F /  0.4 °C 29.7in /  1005.8hPa Calm     94% 0in /  0.0mm 21 W/m2
09:07 34.5 °F /  1.4 °C 32.9 °F /  0.5 °C 29.7in /  1005.8hPa SE 2mph /  3.2km/h 2mph /  3.2km/h 94% 0in /  0.0mm 32 W/m2
09:12 34.9 °F /  1.6 °C 33.3 °F /  0.7 °C 29.7in /  1005.8hPa ESE 2mph /  3.2km/h 3mph /  4.8km/h 94% 0in /  0.0mm 49 W/m2
09:17 35.2 °F /  1.8 °C 33.6 °F /  0.9 °C 29.7in /  1005.8hPa SE 2mph /  3.2km/h 3mph /  4.8km/h 94% 0in /  0.0mm 49 W/m2
09:22 35.6 °F /  2 °C 34 °F /  1.1 °C 29.7in /  1005.8hPa ENE 4mph /  6.4km/h 4mph /  6.4km/h 94% 0in /  0.0mm 47 W/m2
09:27 36 °F /  2.2 °C 34.2 °F /  1.2 °C 29.7in /  1005.8hPa Calm   3mph /  4.8km/h 93% 0in /  0.0mm 47 W/m2
09:32 36.1 °F /  2.3 °C 34.3 °F /  1.3 °C 29.7in /  1005.8hPa ESE 0.9mph /  1.4km/h 4mph /  6.4km/h 93% 0in /  0.0mm 53 W/m2
09:37 36.3 °F /  2.4 °C 34.5 °F /  1.4 °C 29.7in /  1005.8hPa Calm     93% 0in /  0.0mm 58 W/m2
09:42 36.5 °F /  2.5 °C 34.7 °F /  1.5 °C 29.7in /  1005.8hPa Calm     93% 0in /  0.0mm 54 W/m2
09:47 36.7 °F /  2.6 °C 34.9 °F /  1.6 °C 29.7in /  1005.8hPa Calm     93% 0in /  0.0mm 53 W/m2
09:52 36.7 °F /  2.6 °C 34.9 °F /  1.6 °C 29.7in /  1005.8hPa Calm     93% 0in /  0.0mm 49 W/m2
09:57 36.7 °F /  2.6 °C 34.9 °F /  1.6 °C 29.7in /  1005.8hPa Calm     93% 0in /  0.0mm 53 W/m2
10:02 36.9 °F /  2.7 °C 35.1 °F /  1.7 °C 29.7in /  1005.4hPa Calm   2mph /  3.2km/h 93% 0in /  0.0mm 53 W/m2
10:07 37 °F /  2.8 °C 35.2 °F /  1.8 °C 29.7in /  1005.4hPa Calm   2mph /  3.2km/h 93% 0in /  0.0mm 62 W/m2
10:12 37 °F /  2.8 °C 35.2 °F /  1.8 °C 29.7in /  1005.4hPa SE 2mph /  3.2km/h 2mph /  3.2km/h 93% 0in /  0.0mm 74 W/m2
10:17 37.4 °F /  3 °C 35.6 °F /  2 °C 29.7in /  1005.4hPa Calm   2mph /  3.2km/h 93% 0in /  0.0mm 76 W/m2
10:22 37.6 °F /  3.1 °C 35.8 °F /  2.1 °C 29.7in /  1005.4hPa Calm   1mph /  1.6km/h 93% 0in /  0.0mm 76 W/m2
10:27 37.8 °F /  3.2 °C 36 °F /  2.2 °C 29.7in /  1005.1hPa SE 0.9mph /  1.4km/h 3mph /  4.8km/h 93% 0in /  0.0mm 83 W/m2
10:32 38.1 °F /  3.4 °C 36.3 °F /  2.4 °C 29.7in /  1005.1hPa ENE 2.9mph /  4.7km/h 4mph /  6.4km/h 93% 0in /  0.0mm 90 W/m2
10:37 38.8 °F /  3.8 °C 36.7 °F /  2.6 °C 29.7in /  1005.1hPa East 2mph /  3.2km/h 3mph /  4.8km/h 92% 0in /  0.0mm 93 W/m2
10:43 39.4 °F /  4.1 °C 37 °F /  2.8 °C 29.7in /  1005.1hPa East 2.9mph /  4.7km/h 3mph /  4.8km/h 91% 0in /  0.0mm 107 W/m2
10:48 39.7 °F /  4.3 °C 37 °F /  2.8 °C 29.7in /  1005.1hPa East 0.9mph /  1.4km/h 4mph /  6.4km/h 90% 0in /  0.0mm 116 W/m2
10:53 39.9 °F /  4.4 °C 37.2 °F /  2.9 °C 29.7in /  1005.1hPa East 0.9mph /  1.4km/h 2mph /  3.2km/h 90% 0in /  0.0mm 102 W/m2
10:58 40.1 °F /  4.5 °C 37.4 °F /  3 °C 29.7in /  1005.1hPa Calm   4mph /  6.4km/h 90% 0in /  0.0mm 105 W/m2
11:03 40.3 °F /  4.6 °C 37.6 °F /  3.1 °C 29.7in /  1005.1hPa Calm     90% 0in /  0.0mm 109 W/m2
11:08 40.5 °F /  4.7 °C 37.8 °F /  3.2 °C 29.7in /  1005.1hPa Calm   2mph /  3.2km/h 90% 0in /  0.0mm 130 W/m2
11:13 40.6 °F /  4.8 °C 37.9 °F /  3.3 °C 29.7in /  1004.7hPa East 0.9mph /  1.4km/h 5mph /  8km/h 90% 0in /  0.0mm 186 W/m2
11:18 41.2 °F /  5.1 °C 38.5 °F /  3.6 °C 29.7in /  1004.7hPa Calm   4mph /  6.4km/h 90% 0in /  0.0mm 193 W/m2
11:23 42.1 °F /  5.6 °C 38.8 °F /  3.8 °C 29.7in /  1004.7hPa North 0.9mph /  1.4km/h 2mph /  3.2km/h 88% 0in /  0.0mm 165 W/m2
11:28 42.6 °F /  5.9 °C 39 °F /  3.9 °C 29.7in /  1004.7hPa NW 2mph /  3.2km/h 4mph /  6.4km/h 87% 0in /  0.0mm 142 W/m2
11:33 43.3 °F /  6.3 °C 39.4 °F /  4.1 °C 29.7in /  1004.4hPa ESE 0.9mph /  1.4km/h 3mph /  4.8km/h 86% 0in /  0.0mm 135 W/m2
11:38 44.2 °F /  6.8 °C 39.7 °F /  4.3 °C 29.7in /  1004.4hPa NE 2.9mph /  4.7km/h 4mph /  6.4km/h 84% 0in /  0.0mm 135 W/m2
11:43 44.8 °F /  7.1 °C 39.6 °F /  4.2 °C 29.7in /  1004.4hPa ENE 4mph /  6.4km/h 5mph /  8km/h 82% 0in /  0.0mm 149 W/m2
11:48 45.3 °F /  7.4 °C 39.9 °F /  4.4 °C 29.7in /  1004.1hPa Calm   2mph /  3.2km/h 81% 0in /  0.0mm 171 W/m2
11:53 45.7 °F /  7.6 °C 39.9 °F /  4.4 °C 29.7in /  1004.1hPa NE 0.9mph /  1.4km/h 6mph /  9.7km/h 80% 0in /  0.0mm 160 W/m2
11:58 45.9 °F /  7.7 °C 40.1 °F /  4.5 °C 29.7in /  1004.1hPa NNE 4mph /  6.4km/h 5mph /  8km/h 80% 0in /  0.0mm 121 W/m2
12:03 46 °F /  7.8 °C 39.9 °F /  4.4 °C 29.7in /  1004.1hPa NE 2mph /  3.2km/h 6mph /  9.7km/h 79% 0in /  0.0mm 135 W/m2
12:08 46.2 °F /  7.9 °C 40.1 °F /  4.5 °C 29.6in /  1003.7hPa ENE 4mph /  6.4km/h 4mph /  6.4km/h 79% 0in /  0.0mm 163 W/m2
12:13 46.6 °F /  8.1 °C 40.5 °F /  4.7 °C 29.6in /  1003.7hPa ENE 2mph /  3.2km/h 3mph /  4.8km/h 79% 0in /  0.0mm 169 W/m2
12:18 46.8 °F /  8.2 °C 40.6 °F /  4.8 °C 29.6in /  1003.7hPa East 2mph /  3.2km/h 4mph /  6.4km/h 79% 0in /  0.0mm 171 W/m2
12:23 46.9 °F /  8.3 °C 40.8 °F /  4.9 °C 29.6in /  1003.4hPa NE 0.9mph /  1.4km/h 3mph /  4.8km/h 79% 0in /  0.0mm 165 W/m2
12:28 47.1 °F /  8.4 °C 41 °F /  5 °C 29.6in /  1003.4hPa ENE 2mph /  3.2km/h 3mph /  4.8km/h 79% 0in /  0.0mm 149 W/m2
12:33 47.3 °F /  8.5 °C 41.2 °F /  5.1 °C 29.6in /  1003.4hPa North 2.9mph /  4.7km/h 3mph /  4.8km/h 79% 0in /  0.0mm 142 W/m2
12:38 47.7 °F /  8.7 °C 41.2 °F /  5.1 °C 29.6in /  1003.4hPa ENE 2mph /  3.2km/h 4mph /  6.4km/h 78% 0in /  0.0mm 134 W/m2
12:43 47.8 °F /  8.8 °C 41.4 °F /  5.2 °C 29.6in /  1003.0hPa ESE 8.1mph /  13km/h 8mph /  12.9km/h 78% 0in /  0.0mm 128 W/m2
12:48 48 °F /  8.9 °C 41.5 °F /  5.3 °C 29.6in /  1003.0hPa SE 4mph /  6.4km/h 5mph /  8km/h 78% 0in /  0.0mm 128 W/m2
12:53 48.4 °F /  9.1 °C 41.5 °F /  5.3 °C 29.6in /  1003.0hPa NE 4mph /  6.4km/h 7mph /  11.3km/h 77% 0in /  0.0mm 128 W/m2
12:58 48.6 °F /  9.2 °C 41.4 °F /  5.2 °C 29.6in /  1003.0hPa North 4mph /  6.4km/h 4mph /  6.4km/h 76% 0in /  0.0mm 120 W/m2
13:03 48.6 °F /  9.2 °C 41.7 °F /  5.4 °C 29.6in /  1002.7hPa NE 2.9mph /  4.7km/h 4mph /  6.4km/h 77% 0in /  0.0mm 100 W/m2
13:08 48.7 °F /  9.3 °C 41.5 °F /  5.3 °C 29.6in /  1002.7hPa NNE 0.9mph /  1.4km/h 4mph /  6.4km/h 76% 0in /  0.0mm 113 W/m2
13:13 48.7 °F /  9.3 °C 41.9 °F /  5.5 °C 29.6in /  1002.4hPa ENE 4.9mph /  7.9km/h 5mph /  8km/h 77% 0in /  0.0mm 121 W/m2
13:18 48.9 °F /  9.4 °C 41.7 °F /  5.4 °C 29.6in /  1002.4hPa NNE 2.9mph /  4.7km/h 4mph /  6.4km/h 76% 0in /  0.0mm 137 W/m2
13:23 49.1 °F /  9.5 °C 42.3 °F /  5.7 °C 29.6in /  1002.0hPa NNW 8.1mph /  13km/h 8mph /  12.9km/h 77% 0in /  0.0mm 118 W/m2
13:28 49.3 °F /  9.6 °C 42.1 °F /  5.6 °C 29.6in /  1002.4hPa NW 2mph /  3.2km/h 4mph /  6.4km/h 76% 0in /  0.0mm 95 W/m2
13:33 49.3 °F /  9.6 °C 42.1 °F /  5.6 °C 29.6in /  1002.0hPa North 2mph /  3.2km/h 4mph /  6.4km/h 76% 0in /  0.0mm 91 W/m2
13:38 49.5 °F /  9.7 °C 42.3 °F /  5.7 °C 29.6in /  1002.0hPa ENE 6.9mph /  11.1km/h 7mph /  11.3km/h 76% 0in /  0.0mm 91 W/m2
13:43 49.5 °F /  9.7 °C 41.9 °F /  5.5 °C 29.6in /  1002.0hPa North 2.9mph /  4.7km/h 7mph /  11.3km/h 75% 0in /  0.0mm 76 W/m2
13:48 49.5 °F /  9.7 °C 42.3 °F /  5.7 °C 29.6in /  1001.7hPa NE 6mph /  9.7km/h 6mph /  9.7km/h 76% 0in /  0.0mm 56 W/m2
13:53 49.6 °F /  9.8 °C 42.1 °F /  5.6 °C 29.6in /  1001.7hPa NNW 2.9mph /  4.7km/h 5mph /  8km/h 75% 0in /  0.0mm 54 W/m2
13:58 49.6 °F /  9.8 °C 42.4 °F /  5.8 °C 29.6in /  1001.7hPa North 2.9mph /  4.7km/h 3mph /  4.8km/h 76% 0in /  0.0mm 51 W/m2
14:03 49.8 °F /  9.9 °C 42.3 °F /  5.7 °C 29.6in /  1001.4hPa Calm   6mph /  9.7km/h 75% 0in /  0.0mm 44 W/m2
14:08 50.2 °F /  10.1 °C 42.6 °F /  5.9 °C 29.6in /  1001.4hPa ENE 4.9mph /  7.9km/h 8mph /  12.9km/h 75% 0in /  0.0mm 42 W/m2
14:13 50.4 °F /  10.2 °C 42.8 °F /  6 °C 29.6in /  1001.4hPa Calm   4mph /  6.4km/h 75% 0in /  0.0mm 58 W/m2
14:18 50.4 °F /  10.2 °C 42.8 °F /  6 °C 29.6in /  1001.4hPa NE 0.9mph /  1.4km/h 7mph /  11.3km/h 75% 0in /  0.0mm 77 W/m2
14:23 50.5 °F /  10.3 °C 43 °F /  6.1 °C 29.6in /  1001.4hPa NNE 2mph /  3.2km/h 4mph /  6.4km/h 75% 0in /  0.0mm 105 W/m2
14:28 50.4 °F /  10.2 °C 42.8 °F /  6 °C 29.6in /  1001.4hPa WNW 4mph /  6.4km/h 9mph /  14.5km/h 75% 0in /  0.0mm 125 W/m2
14:33 50.4 °F /  10.2 °C 42.8 °F /  6 °C 29.6in /  1001.0hPa WNW 2.9mph /  4.7km/h 6mph /  9.7km/h 75% 0in /  0.0mm 125 W/m2
14:38 50.4 °F /  10.2 °C 42.8 °F /  6 °C 29.6in /  1001.0hPa WNW 0.9mph /  1.4km/h 4mph /  6.4km/h 75% 0in /  0.0mm 151 W/m2
14:43 50.5 °F /  10.3 °C 43 °F /  6.1 °C 29.6in /  1001.4hPa NE 2.9mph /  4.7km/h 5mph /  8km/h 75% 0in /  0.0mm 148 W/m2
14:48 50.5 °F /  10.3 °C 43 °F /  6.1 °C 29.6in /  1001.0hPa NNE 0.9mph /  1.4km/h 4mph /  6.4km/h 75% 0in /  0.0mm 127 W/m2
14:53 50.7 °F /  10.4 °C 43.2 °F /  6.2 °C 29.6in /  1001.0hPa North 2.9mph /  4.7km/h 5mph /  8km/h 75% 0in /  0.0mm 104 W/m2
14:58 50.7 °F /  10.4 °C 43.2 °F /  6.2 °C 29.6in /  1001.0hPa NW 2.9mph /  4.7km/h 4mph /  6.4km/h 75% 0in /  0.0mm 88 W/m2
15:03 50.7 °F /  10.4 °C 43.2 °F /  6.2 °C 29.6in /  1000.7hPa North 2.9mph /  4.7km/h 6mph /  9.7km/h 75% 0in /  0.0mm 95 W/m2
15:08 50.7 °F /  10.4 °C 43.2 °F /  6.2 °C 29.6in /  1001.0hPa Calm   3mph /  4.8km/h 75% 0in /  0.0mm 90 W/m2
15:13 50.7 °F /  10.4 °C 43.2 °F /  6.2 °C 29.6in /  1001.0hPa WNW 2mph /  3.2km/h 7mph /  11.3km/h 75% 0in /  0.0mm 84 W/m2
15:18 50.7 °F /  10.4 °C 43.2 °F /  6.2 °C 29.6in /  1001.0hPa NW 2mph /  3.2km/h 4mph /  6.4km/h 75% 0in /  0.0mm 83 W/m2
15:23 50.7 °F /  10.4 °C 43.2 °F /  6.2 °C 29.6in /  1001.0hPa North 0.9mph /  1.4km/h 4mph /  6.4km/h 75% 0in /  0.0mm 84 W/m2
15:28 50.7 °F /  10.4 °C 43.2 °F /  6.2 °C 29.6in /  1000.7hPa NW 2.9mph /  4.7km/h 5mph /  8km/h 75% 0in /  0.0mm 88 W/m2
15:33 50.7 °F /  10.4 °C 43.2 °F /  6.2 °C 29.6in /  1000.7hPa NW 4mph /  6.4km/h 4mph /  6.4km/h 75% 0in /  0.0mm 70 W/m2
15:39 50.7 °F /  10.4 °C 43.2 °F /  6.2 °C 29.6in /  1000.7hPa NE 0.9mph /  1.4km/h 2mph /  3.2km/h 75% 0in /  0.0mm 54 W/m2
15:44 50.5 °F /  10.3 °C 43.3 °F /  6.3 °C 29.6in /  1000.7hPa NW 4mph /  6.4km/h 9mph /  14.5km/h 76% 0in /  0.0mm 42 W/m2
15:49 50.5 °F /  10.3 °C 43.3 °F /  6.3 °C 29.6in /  1000.7hPa NNE 0.9mph /  1.4km/h 4mph /  6.4km/h 76% 0in /  0.0mm 40 W/m2
15:54 50.5 °F /  10.3 °C 43.3 °F /  6.3 °C 29.6in /  1000.7hPa WNW 2mph /  3.2km/h 2mph /  3.2km/h 76% 0in /  0.0mm 46 W/m2
15:59 50.4 °F /  10.2 °C 43.2 °F /  6.2 °C 29.6in /  1000.7hPa Calm   3mph /  4.8km/h 76% 0in /  0.0mm 44 W/m2
16:04 50.4 °F /  10.2 °C 43.2 °F /  6.2 °C 29.5in /  1000.3hPa NNW 2mph /  3.2km/h 5mph /  8km/h 76% 0in /  0.0mm 47 W/m2
16:09 50.2 °F /  10.1 °C 43 °F /  6.1 °C 29.5in /  1000.3hPa Calm   4mph /  6.4km/h 76% 0in /  0.0mm 46 W/m2
16:14 50.2 °F /  10.1 °C 43 °F /  6.1 °C 29.5in /  1000.3hPa ENE 0.9mph /  1.4km/h 6mph /  9.7km/h 76% 0in /  0.0mm 46 W/m2
16:19 50.2 °F /  10.1 °C 43 °F /  6.1 °C 29.5in /  1000.3hPa NNW 4mph /  6.4km/h 5mph /  8km/h 76% 0in /  0.0mm 42 W/m2
16:24 50.2 °F /  10.1 °C 43 °F /  6.1 °C 29.5in /  1000.3hPa ENE 2.9mph /  4.7km/h 6mph /  9.7km/h 76% 0in /  0.0mm 39 W/m2
16:29 50.4 °F /  10.2 °C 42.8 °F /  6 °C 29.5in /  1000.3hPa NNE 4mph /  6.4km/h 4mph /  6.4km/h 75% 0in /  0.0mm 32 W/m2
16:34 50.4 °F /  10.2 °C 42.8 °F /  6 °C 29.5in /  1000.3hPa NNW 2.9mph /  4.7km/h 6mph /  9.7km/h 75% 0in /  0.0mm 26 W/m2
16:39 50.4 °F /  10.2 °C 42.8 °F /  6 °C 29.5in /  1000.0hPa NNE 0.9mph /  1.4km/h 5mph /  8km/h 75% 0in /  0.0mm 18 W/m2
16:44 50.2 °F /  10.1 °C 42.6 °F /  5.9 °C 29.5in /  1000.0hPa NNW 2mph /  3.2km/h 6mph /  9.7km/h 75% 0in /  0.0mm 12 W/m2
16:49 50.2 °F /  10.1 °C 42.6 °F /  5.9 °C 29.5in /  1000.0hPa NE 2mph /  3.2km/h 5mph /  8km/h 75% 0in /  0.0mm 11 W/m2
16:54 50.2 °F /  10.1 °C 42.6 °F /  5.9 °C 29.5in /  1000.0hPa NE 4mph /  6.4km/h 5mph /  8km/h 75% 0in /  0.0mm 7 W/m2
16:59 50 °F /  10 °C 42.4 °F /  5.8 °C 29.5in /  1000.0hPa SW 0.9mph /  1.4km/h 5mph /  8km/h 75% 0in /  0.0mm 7 W/m2
17:04 49.8 °F /  9.9 °C 42.3 °F /  5.7 °C 29.5in /  1000.0hPa North 2mph /  3.2km/h 3mph /  4.8km/h 75% 0in /  0.0mm 5 W/m2
17:09 49.6 °F /  9.8 °C 42.1 °F /  5.6 °C 29.5in /  1000.0hPa NNE 0.9mph /  1.4km/h 4mph /  6.4km/h 75% 0in /  0.0mm 0 W/m2
17:14 49.6 °F /  9.8 °C 42.4 °F /  5.8 °C 29.5in /  1000.0hPa NE 0.9mph /  1.4km/h 4mph /  6.4km/h 76% 0in /  0.0mm 0 W/m2
17:19 49.6 °F /  9.8 °C 42.4 °F /  5.8 °C 29.5in /  999.7hPa North 0.9mph /  1.4km/h 5mph /  8km/h 76% 0in /  0.0mm 0 W/m2
17:24 49.6 °F /  9.8 °C 42.4 °F /  5.8 °C 29.5in /  999.7hPa Calm   3mph /  4.8km/h 76% 0in /  0.0mm 0 W/m2
17:29 49.5 °F /  9.7 °C 42.3 °F /  5.7 °C 29.5in /  999.7hPa NE 4mph /  6.4km/h 10mph /  16.1km/h 76% 0in /  0.0mm 0 W/m2
17:34 49.6 °F /  9.8 °C 42.4 °F /  5.8 °C 29.5in /  999.7hPa NNE 2.9mph /  4.7km/h 5mph /  8km/h 76% 0in /  0.0mm 0 W/m2
17:39 49.8 °F /  9.9 °C 42.3 °F /  5.7 °C 29.5in /  999.7hPa ENE 0.9mph /  1.4km/h 10mph /  16.1km/h 75% 0in /  0.0mm 0 W/m2
17:44 49.6 °F /  9.8 °C 42.4 °F /  5.8 °C 29.5in /  999.7hPa NNW 2mph /  3.2km/h 4mph /  6.4km/h 76% 0in /  0.0mm 0 W/m2
17:49 49.6 °F /  9.8 °C 42.4 °F /  5.8 °C 29.5in /  999.7hPa East 2mph /  3.2km/h 6mph /  9.7km/h 76% 0in /  0.0mm 0 W/m2
17:54 50.2 °F /  10.1 °C 42.6 °F /  5.9 °C 29.5in /  999.7hPa North 2mph /  3.2km/h 7mph /  11.3km/h 75% 0in /  0.0mm 0 W/m2
17:59 50.2 °F /  10.1 °C 42.6 °F /  5.9 °C 29.5in /  999.7hPa ENE 0.9mph /  1.4km/h 4mph /  6.4km/h 75% 0in /  0.0mm 0 W/m2
18:04 50 °F /  10 °C 42.4 °F /  5.8 °C 29.5in /  999.7hPa NNE 0.9mph /  1.4km/h 7mph /  11.3km/h 75% 0in /  0.0mm 0 W/m2
18:09 50 °F /  10 °C 42.4 °F /  5.8 °C 29.5in /  999.7hPa East 0.9mph /  1.4km/h 5mph /  8km/h 75% 0in /  0.0mm 0 W/m2
18:14 50 °F /  10 °C 42.4 °F /  5.8 °C 29.5in /  999.7hPa East 0.9mph /  1.4km/h 4mph /  6.4km/h 75% 0in /  0.0mm 0 W/m2
18:19 49.8 °F /  9.9 °C 42.3 °F /  5.7 °C 29.5in /  999.7hPa NE 0.9mph /  1.4km/h 8mph /  12.9km/h 75% 0in /  0.0mm 0 W/m2
18:24 50 °F /  10 °C 42.1 °F /  5.6 °C 29.5in /  999.3hPa ESE 2.9mph /  4.7km/h 4mph /  6.4km/h 74% 0in /  0.0mm 0 W/m2
18:29 50.2 °F /  10.1 °C 42.3 °F /  5.7 °C 29.5in /  999.7hPa North 4mph /  6.4km/h 5mph /  8km/h 74% 0in /  0.0mm 0 W/m2
18:34 50.2 °F /  10.1 °C 42.3 °F /  5.7 °C 29.5in /  999.7hPa NE 2mph /  3.2km/h 2mph /  3.2km/h 74% 0in /  0.0mm 0 W/m2
18:39 50 °F /  10 °C 42.1 °F /  5.6 °C 29.5in /  999.3hPa NW 0.9mph /  1.4km/h 4mph /  6.4km/h 74% 0in /  0.0mm 0 W/m2
18:44 49.8 °F /  9.9 °C 41.9 °F /  5.5 °C 29.5in /  999.7hPa North 8.1mph /  13km/h 8mph /  12.9km/h 74% 0in /  0.0mm 0 W/m2
18:49 50 °F /  10 °C 42.1 °F /  5.6 °C 29.5in /  999.3hPa NNW 2mph /  3.2km/h 7mph /  11.3km/h 74% 0in /  0.0mm 0 W/m2
18:54 50.2 °F /  10.1 °C 42.3 °F /  5.7 °C 29.5in /  999.3hPa East 4mph /  6.4km/h 5mph /  8km/h 74% 0in /  0.0mm 0 W/m2
18:59 50 °F /  10 °C 42.1 °F /  5.6 °C 29.5in /  999.3hPa NNE 2mph /  3.2km/h 7mph /  11.3km/h 74% 0in /  0.0mm 0 W/m2
19:04 49.8 °F /  9.9 °C 41.9 °F /  5.5 °C 29.5in /  999.3hPa ENE 0.9mph /  1.4km/h 6mph /  9.7km/h 74% 0in /  0.0mm 0 W/m2
19:09 49.8 °F /  9.9 °C 42.3 °F /  5.7 °C 29.5in /  999.3hPa North 0.9mph /  1.4km/h 6mph /  9.7km/h 75% 0in /  0.0mm 0 W/m2
19:14 49.6 °F /  9.8 °C 42.1 °F /  5.6 °C 29.5in /  999.3hPa ENE 2.9mph /  4.7km/h 5mph /  8km/h 75% 0in /  0.0mm 0 W/m2
19:19 49.6 °F /  9.8 °C 42.1 °F /  5.6 °C 29.5in /  999.0hPa NE 2mph /  3.2km/h 7mph /  11.3km/h 75% 0in /  0.0mm 0 W/m2
19:24 49.8 °F /  9.9 °C 41.9 °F /  5.5 °C 29.5in /  999.0hPa SSE 0.9mph /  1.4km/h 3mph /  4.8km/h 74% 0in /  0.0mm 0 W/m2
19:30 49.6 °F /  9.8 °C 42.1 °F /  5.6 °C 29.5in /  999.0hPa East 0.9mph /  1.4km/h 3mph /  4.8km/h 75% 0in /  0.0mm 0 W/m2
19:35 49.5 °F /  9.7 °C 41.9 °F /  5.5 °C 29.5in /  999.0hPa ESE 2.9mph /  4.7km/h 4mph /  6.4km/h 75% 0in /  0.0mm 0 W/m2
19:40 49.5 °F /  9.7 °C 41.9 °F /  5.5 °C 29.5in /  999.0hPa ENE 0.9mph /  1.4km/h 7mph /  11.3km/h 75% 0in /  0.0mm 0 W/m2
19:45 49.5 °F /  9.7 °C 41.9 °F /  5.5 °C 29.5in /  998.6hPa East 6mph /  9.7km/h 7mph /  11.3km/h 75% 0in /  0.0mm 0 W/m2
19:50 49.5 °F /  9.7 °C 41.9 °F /  5.5 °C 29.5in /  999.0hPa ENE 2.9mph /  4.7km/h 5mph /  8km/h 75% 0in /  0.0mm 0 W/m2
19:55 49.5 °F /  9.7 °C 41.9 °F /  5.5 °C 29.5in /  999.0hPa ENE 2mph /  3.2km/h 4mph /  6.4km/h 75% 0in /  0.0mm 0 W/m2
20:00 49.5 °F /  9.7 °C 41.9 °F /  5.5 °C 29.5in /  999.0hPa ENE 2mph /  3.2km/h 6mph /  9.7km/h 75% 0in /  0.0mm 0 W/m2
20:05 49.5 °F /  9.7 °C 41.9 °F /  5.5 °C 29.5in /  998.6hPa NNE 2mph /  3.2km/h 3mph /  4.8km/h 75% 0in /  0.0mm 0 W/m2
20:10 49.6 °F /  9.8 °C 41.7 °F /  5.4 °C 29.5in /  998.6hPa NE 2.9mph /  4.7km/h 5mph /  8km/h 74% 0in /  0.0mm 0 W/m2
20:15 49.5 °F /  9.7 °C 41.9 °F /  5.5 °C 29.5in /  998.6hPa NE 4.9mph /  7.9km/h 5mph /  8km/h 75% 0in /  0.0mm 0 W/m2
20:20 49.5 °F /  9.7 °C 41.9 °F /  5.5 °C 29.5in /  998.6hPa ENE 2mph /  3.2km/h 4mph /  6.4km/h 75% 0in /  0.0mm 0 W/m2
20:25 49.6 °F /  9.8 °C 41.7 °F /  5.4 °C 29.5in /  998.3hPa NE 2mph /  3.2km/h 6mph /  9.7km/h 74% 0in /  0.0mm 0 W/m2
20:30 49.8 °F /  9.9 °C 41.9 °F /  5.5 °C 29.5in /  998.6hPa North 2mph /  3.2km/h 6mph /  9.7km/h 74% 0in /  0.0mm 0 W/m2
20:35 49.8 °F /  9.9 °C 41.9 °F /  5.5 °C 29.5in /  998.3hPa North 0.9mph /  1.4km/h 4mph /  6.4km/h 74% 0in /  0.0mm 0 W/m2
20:40 49.8 °F /  9.9 °C 41.9 °F /  5.5 °C 29.5in /  998.3hPa NE 2mph /  3.2km/h 5mph /  8km/h 74% 0in /  0.0mm 0 W/m2
20:45 49.8 °F /  9.9 °C 41.5 °F /  5.3 °C 29.5in /  998.3hPa Calm   5mph /  8km/h 73% 0in /  0.0mm 0 W/m2
20:50 50.2 °F /  10.1 °C 41.9 °F /  5.5 °C 29.5in /  998.3hPa NE 4mph /  6.4km/h 5mph /  8km/h 73% 0in /  0.0mm 0 W/m2
20:55 50.2 °F /  10.1 °C 41.9 °F /  5.5 °C 29.5in /  998.3hPa NNW 2mph /  3.2km/h 4mph /  6.4km/h 73% 0in /  0.0mm 0 W/m2
21:00 50.4 °F /  10.2 °C 42.1 °F /  5.6 °C 29.5in /  998.3hPa ENE 2mph /  3.2km/h 5mph /  8km/h 73% 0in /  0.0mm 0 W/m2
21:05 50.4 °F /  10.2 °C 42.1 °F /  5.6 °C 29.5in /  998.3hPa ENE 2.9mph /  4.7km/h 8mph /  12.9km/h 73% 0in /  0.0mm 0 W/m2
21:10 50.5 °F /  10.3 °C 41.9 °F /  5.5 °C 29.5in /  998.0hPa NNW 2.9mph /  4.7km/h 4mph /  6.4km/h 72% 0in /  0.0mm 0 W/m2
21:15 50.4 °F /  10.2 °C 42.1 °F /  5.6 °C 29.5in /  998.0hPa NNE 2mph /  3.2km/h 9mph /  14.5km/h 73% 0in /  0.0mm 0 W/m2
21:20 50.4 °F /  10.2 °C 41.7 °F /  5.4 °C 29.5in /  998.0hPa WNW 4mph /  6.4km/h 5mph /  8km/h 72% 0in /  0.0mm 0 W/m2
21:25 50.4 °F /  10.2 °C 41.7 °F /  5.4 °C 29.5in /  998.0hPa ENE 4mph /  6.4km/h 9mph /  14.5km/h 72% 0in /  0.0mm 0 W/m2
21:30 50.5 °F /  10.3 °C 41.9 °F /  5.5 °C 29.5in /  998.0hPa NE 2.9mph /  4.7km/h 4mph /  6.4km/h 72% 0in /  0.0mm 0 W/m2
21:35 50.5 °F /  10.3 °C 41.9 °F /  5.5 °C 29.5in /  998.0hPa Calm   5mph /  8km/h 72% 0in /  0.0mm 0 W/m2
21:40 50.5 °F /  10.3 °C 41.9 °F /  5.5 °C 29.5in /  998.0hPa SE 4.9mph /  7.9km/h 12mph /  19.3km/h 72% 0in /  0.0mm 0 W/m2
21:45 50.5 °F /  10.3 °C 41.9 °F /  5.5 °C 29.5in /  998.0hPa NE 4mph /  6.4km/h 6mph /  9.7km/h 72% 0in /  0.0mm 0 W/m2
21:50 50.5 °F /  10.3 °C 41.9 °F /  5.5 °C 29.5in /  998.0hPa ENE 2.9mph /  4.7km/h 12mph /  19.3km/h 72% 0in /  0.0mm 0 W/m2
21:55 50.7 °F /  10.4 °C 42.1 °F /  5.6 °C 29.5in /  998.0hPa ENE 2.9mph /  4.7km/h 6mph /  9.7km/h 72% 0in /  0.0mm 0 W/m2
22:00 50.7 °F /  10.4 °C 41.7 °F /  5.4 °C 29.5in /  998.0hPa NE 4.9mph /  7.9km/h 5mph /  8km/h 71% 0in /  0.0mm 0 W/m2
22:05 50.9 °F /  10.5 °C 41.9 °F /  5.5 °C 29.5in /  998.0hPa NE 4mph /  6.4km/h 15mph /  24.1km/h 71% 0in /  0.0mm 0 W/m2
22:10 50.9 °F /  10.5 °C 41.9 °F /  5.5 °C 29.5in /  998.0hPa NNW 4mph /  6.4km/h 7mph /  11.3km/h 71% 0in /  0.0mm 0 W/m2
22:15 50.7 °F /  10.4 °C 41.7 °F /  5.4 °C 29.5in /  997.6hPa NE 4mph /  6.4km/h 15mph /  24.1km/h 71% 0in /  0.0mm 0 W/m2
22:20 50.9 °F /  10.5 °C 41.9 °F /  5.5 °C 29.5in /  997.6hPa NNE 2mph /  3.2km/h 11mph /  17.7km/h 71% 0in /  0.0mm 0 W/m2
22:25 51.1 °F /  10.6 °C 41.7 °F /  5.4 °C 29.5in /  997.6hPa NNW 2.9mph /  4.7km/h 10mph /  16.1km/h 70% 0in /  0.0mm 0 W/m2
22:30 51.1 °F /  10.6 °C 42.1 °F /  5.6 °C 29.5in /  997.6hPa NNE 0.9mph /  1.4km/h 11mph /  17.7km/h 71% 0in /  0.0mm 0 W/m2
22:35 50.9 °F /  10.5 °C 41.9 °F /  5.5 °C 29.5in /  997.6hPa Calm   5mph /  8km/h 71% 0in /  0.0mm 0 W/m2
22:40 50.9 °F /  10.5 °C 41.9 °F /  5.5 °C 29.5in /  997.6hPa ENE 2.9mph /  4.7km/h 4mph /  6.4km/h 71% 0in /  0.0mm 0 W/m2
22:45 50.7 °F /  10.4 °C 41.7 °F /  5.4 °C 29.5in /  997.3hPa North 2.9mph /  4.7km/h 10mph /  16.1km/h 71% 0in /  0.0mm 0 W/m2
22:50 50.9 °F /  10.5 °C 41.9 °F /  5.5 °C 29.5in /  997.3hPa ENE 4mph /  6.4km/h 8mph /  12.9km/h 71% 0in /  0.0mm 0 W/m2
22:55 50.7 °F /  10.4 °C 41.7 °F /  5.4 °C 29.5in /  997.3hPa ESE 6.9mph /  11.1km/h 7mph /  11.3km/h 71% 0in /  0.0mm 0 W/m2
23:00 50.7 °F /  10.4 °C 41.7 °F /  5.4 °C 29.5in /  997.3hPa ENE 2.9mph /  4.7km/h 5mph /  8km/h 71% 0in /  0.0mm 0 W/m2
23:05 50.7 °F /  10.4 °C 41.7 °F /  5.4 °C 29.5in /  997.3hPa ENE 2.9mph /  4.7km/h 5mph /  8km/h 71% 0in /  0.0mm 0 W/m2
23:10 51.1 °F /  10.6 °C 41.7 °F /  5.4 °C 29.4in /  997.0hPa North 2mph /  3.2km/h 9mph /  14.5km/h 70% 0in /  0.0mm 0 W/m2
23:15 51.3 °F /  10.7 °C 41.9 °F /  5.5 °C 29.4in /  997.0hPa NNW 2.9mph /  4.7km/h 4mph /  6.4km/h 70% 0in /  0.0mm 0 W/m2
23:20 51.1 °F /  10.6 °C 41.7 °F /  5.4 °C 29.4in /  997.0hPa NE 4mph /  6.4km/h 8mph /  12.9km/h 70% 0in /  0.0mm 0 W/m2
23:25 51.3 °F /  10.7 °C 41.4 °F /  5.2 °C 29.4in /  997.0hPa ENE 4mph /  6.4km/h 8mph /  12.9km/h 69% 0in /  0.0mm 0 W/m2
23:30 51.3 °F /  10.7 °C 41.4 °F /  5.2 °C 29.4in /  997.0hPa North 2.9mph /  4.7km/h 7mph /  11.3km/h 69% 0in /  0.0mm 0 W/m2
23:35 51.3 °F /  10.7 °C 41.4 °F /  5.2 °C 29.4in /  997.0hPa NW 2.9mph /  4.7km/h 5mph /  8km/h 69% 0in /  0.0mm 0 W/m2
23:40 51.4 °F /  10.8 °C 41.2 °F /  5.1 °C 29.4in /  997.0hPa North 4mph /  6.4km/h 7mph /  11.3km/h 68% 0in /  0.0mm 0 W/m2
23:45 51.4 °F /  10.8 °C 41.2 °F /  5.1 °C 29.4in /  997.0hPa SE 2mph /  3.2km/h 13mph /  20.9km/h 68% 0in /  0.0mm 0 W/m2
23:50 51.6 °F /  10.9 °C 41.4 °F /  5.2 °C 29.4in /  997.0hPa West 6.9mph /  11.1km/h 15mph /  24.1km/h 68% 0in /  0.0mm 0 W/m2
23:55 51.6 °F /  10.9 °C 41.4 °F /  5.2 °C 29.4in /  997.0hPa NW 4.9mph /  7.9km/h 5mph /  8km/h 68% 0in /  0.0mm 0 W/m2
Juneau County Weather
Compliments of Weather Underground - 4 mb